Aeroporto :
LOGIN :

Iscrizione | Disclaimer

   EN    FR    IT 

 










Sommario :    VFR   VFR Marginale   IFR   IFR Intensivo   IFR Molto Intensivo
Visibilità : 
Base nubi : 
>= 8 km
>= 3000ft
5 / 8 km
1000 / 3000 ft
1500m / 5 km
500 / 1000 ft
800 / 1500m
200 / 500 ft
< 800m
< 200 ft
Simboli :   Temporali  Nebbia  Neve Forte  Precipitazioni Forti  Vento > 20 kt
SIGMETs :   Varie  Temporali  Ghiacco  Turbolenza  Onda orograficha  Ceneri Vulcaniche






- Altitudine del aeroporto : 39 ft
- Codice IATA : ANR


EBAW - Anvers / Antwerpen Deurne

ULTIMO METAR :
  • 200650Z 32006KT 9999 FEW016 BKN044 04/02 Q1028 TEMPO 4000 SHRA BKN014TCU

METARs OBSOLETI :
  • 200620Z 33007KT 300V360 9999 FEW016 BKN044 04/02 Q1028 TEMPO 4000 SHRA BKN014TCU
  • 200550Z 30008KT 9999 -SHRA SCT022 BKN035 04/02 Q1027 TEMPO 4000 SHRA BKN014TCU
  • 200520Z AUTO 30014KT 9999 -SHRA FEW026/// BKN029/// BKN035/// 05/01 Q1027
  • 200450Z AUTO 28008KT 9999 // SCT028/// BKN033/// 05/02 Q1027
  • 200420Z AUTO 29007KT 9999 -SHRA SCT013/// BKN015/// BKN021/// 05/03 Q1027
  • 200350Z AUTO 27009KT 9999 // BKN017/// BKN019/// 04/02 Q1026

TAF TAF EBAW
Valido dal 20 a 06 ore il 20 a 15 ore UTC


200522Z 2006/2015 32010KT 9999 SCT020 SCT040
PROB40
TEMPO 2006/2007 4000 SHRA SHRAGS BKN014TCU
PROB30
TEMPO 2011/2015 3500 SHRASN SCT007 BKN014



MetMap, La meteo Aeronautica in un colpo d'occhio ! - Copyright ORBIFLY Dicembre 2007 - Disclaimer

ORBIFLY MET'MAP TEAM :

Programmazione e sviluppo : Alexandra Zaïnal
Concezione : Baudouin d'Aumeries
Aiuto per la programmazione : Marc-Olivier Méhu
Supporto tecnico e logistico : Manuel Goepfert
Aiuto per la traduzione : Arnaldo La Scala

Contatto : metmap@orbifly.com




FONTI E CREDITI :

   NOAA